Time;durP1;ratioP1;P1;durP2;ratioP2;P2;SDS_P1;SDS_P2;PMS_P1;PMS_P2;Temp;Humidity;BMP_temperature;BMP_pressure;BME280_temperature;BME280_humidity;BME280_pressure;Samples;Min_cycle;Max_cycle;Signal;HPM_P1;HPM_P2
2021/05/09 00:01:38;;;;;;;21.08;8.27;;;;;;;;;;4970085;28;20643;-58
2021/05/09 00:04:04;;;;;;;20.02;8.30;;;;;;;;;;4972501;28;20038;-57
2021/05/09 00:06:31;;;;;;;16.70;7.57;;;;;;;;;;4971207;28;20649;-58
2021/05/09 00:08:59;;;;;;;16.67;8.05;;;;;;;;;;4968849;28;20030;-60
2021/05/09 00:11:25;;;;;;;22.08;7.88;;;;;;;;;;4952018;28;20038;-57
2021/05/09 00:13:53;;;;;;;31.15;9.30;;;;;;;;;;4973321;28;20042;-58
2021/05/09 00:16:21;;;;;;;22.92;8.38;;;;;;;;;;4969636;28;20034;-58
2021/05/09 00:18:49;;;;;;;30.08;9.50;;;;;;;;;;4972757;28;20093;-58
2021/05/09 00:21:14;;;;;;;23.17;8.70;;;;;;;;;;4954290;28;20592;-59
2021/05/09 00:23:40;;;;;;;23.23;8.68;;;;;;;;;;4987480;28;20042;-57
2021/05/09 00:26:08;;;;;;;22.25;8.38;;;;;;;;;;4971124;28;20452;-57
2021/05/09 00:28:36;;;;;;;26.92;9.15;;;;;;;;;;4954626;28;20099;-58
2021/05/09 00:31:02;;;;;;;29.00;8.07;;;;;;;;;;4969204;28;20046;-57
2021/05/09 00:33:27;;;;;;;20.33;7.93;;;;;;;;;;4968710;28;20053;-59
2021/05/09 00:35:53;;;;;;;20.42;8.60;;;;;;;;;;4971960;28;20037;-60
2021/05/09 00:38:18;;;;;;;30.48;9.93;;;;;;;;;;4971957;28;20501;-61
2021/05/09 00:40:46;;;;;;;21.80;8.30;;;;;;;;;;4967974;28;20035;-58
2021/05/09 00:43:17;;;;;;;25.95;8.32;;;;;;;;;;4971241;28;20735;-58
2021/05/09 00:45:45;;;;;;;22.77;8.63;;;;;;;;;;4970840;28;20038;-58
2021/05/09 00:48:11;;;;;;;23.15;8.55;;;;;;;;;;4971128;28;20049;-57
2021/05/09 00:50:37;;;;;;;22.65;8.52;;;;;;;;;;4972479;28;20058;-58
2021/05/09 00:53:08;;;;;;;23.27;8.95;;;;;;;;;;4970306;28;20026;-59
2021/05/09 00:55:34;;;;;;;29.75;8.23;;;;;;;;;;4970015;28;20155;-58
2021/05/09 00:58:00;;;;;;;25.00;9.45;;;;;;;;;;4986543;28;20041;-57
2021/05/09 01:00:29;;;;;;;22.50;8.25;;;;;;;;;;4971554;28;20023;-58
2021/05/09 01:02:58;;;;;;;29.75;9.07;;;;;;;;;;4971141;28;20035;-59
2021/05/09 01:05:26;;;;;;;24.58;8.73;;;;;;;;;;4971442;28;20054;-59
2021/05/09 01:07:51;;;;;;;29.77;9.57;;;;;;;;;;4971955;28;20129;-58
2021/05/09 01:10:17;;;;;;;33.83;9.73;;;;;;;;;;4986291;28;20034;-58
2021/05/09 01:12:48;;;;;;;19.65;8.45;;;;;;;;;;4969611;28;20081;-59
2021/05/09 01:15:19;;;;;;;23.88;8.85;;;;;;;;;;4965661;28;20074;-58
2021/05/09 01:17:45;;;;;;;28.20;9.82;;;;;;;;;;4972002;28;20045;-59
2021/05/09 01:20:10;;;;;;;26.95;8.35;;;;;;;;;;4971115;28;20038;-58
2021/05/09 01:22:38;;;;;;;18.75;7.85;;;;;;;;;;4968992;28;20160;-58
2021/05/09 01:25:06;;;;;;;21.13;9.13;;;;;;;;;;4971591;28;20026;-58
2021/05/09 01:27:32;;;;;;;24.38;8.75;;;;;;;;;;4970330;28;20065;-57
2021/05/09 01:30:00;;;;;;;25.67;8.45;;;;;;;;;;4970143;28;20062;-58
2021/05/09 01:32:27;;;;;;;23.30;9.23;;;;;;;;;;4952775;28;20045;-57
2021/05/09 01:34:53;;;;;;;31.55;7.85;;;;;;;;;;4968606;28;20042;-58
2021/05/09 01:37:19;;;;;;;28.02;9.77;;;;;;;;;;4967864;28;20036;-58
2021/05/09 01:39:44;;;;;;;22.00;8.40;;;;;;;;;;4953182;28;20026;-58
2021/05/09 01:42:10;;;;;;;23.92;9.27;;;;;;;;;;4970813;28;20030;-57
2021/05/09 01:44:39;;;;;;;25.42;9.63;;;;;;;;;;4970098;28;20046;-59
2021/05/09 01:47:04;;;;;;;28.92;9.85;;;;;;;;;;4968439;28;21291;-57
2021/05/09 01:49:29;;;;;;;23.42;8.70;;;;;;;;;;4968676;28;20046;-58
2021/05/09 01:51:56;;;;;;;24.45;9.45;;;;;;;;;;4969187;28;20042;-58
2021/05/09 01:54:22;;;;;;;25.60;7.95;;;;;;;;;;4968630;28;20883;-58
2021/05/09 01:56:50;;;;;;;24.40;8.65;;;;;;;;;;4971007;28;20026;-59
2021/05/09 01:59:16;;;;;;;21.20;9.60;;;;;;;;;;4968119;28;20086;-58
2021/05/09 02:01:41;;;;;;;22.55;8.43;;;;;;;;;;4954752;28;20142;-58
2021/05/09 02:04:07;;;;;;;30.55;8.70;;;;;;;;;;4969305;28;20038;-58
2021/05/09 02:06:33;;;;;;;28.08;8.48;;;;;;;;;;4964255;28;20046;-59
2021/05/09 02:08:59;;;;;;;21.98;9.18;;;;;;;;;;4968166;28;20068;-58
2021/05/09 02:11:25;;;;;;;24.20;8.57;;;;;;;;;;4953637;28;20038;-58
2021/05/09 02:13:50;;;;;;;24.90;8.80;;;;;;;;;;4968254;28;20538;-58
2021/05/09 02:16:16;;;;;;;22.92;8.25;;;;;;;;;;4950940;28;20038;-58
2021/05/09 02:18:41;;;;;;;26.13;8.63;;;;;;;;;;4983503;28;20462;-59
2021/05/09 02:21:07;;;;;;;22.63;7.57;;;;;;;;;;4967629;28;20038;-58
2021/05/09 02:23:35;;;;;;;21.77;8.40;;;;;;;;;;4969322;28;20030;-57
2021/05/09 02:26:01;;;;;;;24.48;8.77;;;;;;;;;;4968279;28;20037;-58
2021/05/09 02:28:26;;;;;;;23.48;8.07;;;;;;;;;;4967684;28;20030;-60
2021/05/09 02:30:52;;;;;;;25.02;8.68;;;;;;;;;;4967658;28;20049;-57
2021/05/09 02:33:17;;;;;;;20.92;8.13;;;;;;;;;;4968310;28;20069;-58
2021/05/09 02:35:43;;;;;;;26.92;8.93;;;;;;;;;;4968581;28;20052;-57
2021/05/09 02:38:11;;;;;;;23.75;8.20;;;;;;;;;;4969867;28;20425;-58
2021/05/09 02:40:36;;;;;;;25.52;8.95;;;;;;;;;;4964578;28;20023;-57
2021/05/09 02:43:04;;;;;;;23.50;8.57;;;;;;;;;;4983327;28;20038;-58
2021/05/09 02:45:33;;;;;;;25.20;9.07;;;;;;;;;;4967695;28;20049;-58
2021/05/09 02:47:58;;;;;;;23.58;7.55;;;;;;;;;;4965030;28;20034;-57
2021/05/09 02:50:27;;;;;;;21.52;8.35;;;;;;;;;;4967385;28;20821;-58
2021/05/09 02:52:53;;;;;;;36.35;8.95;;;;;;;;;;4965747;28;20149;-59
2021/05/09 02:55:18;;;;;;;20.92;8.73;;;;;;;;;;4968444;28;20042;-58
2021/05/09 02:57:43;;;;;;;33.85;9.40;;;;;;;;;;4968226;28;20073;-60
2021/05/09 03:00:09;;;;;;;26.15;9.35;;;;;;;;;;4967905;28;20612;-58
2021/05/09 03:02:35;;;;;;;34.55;9.02;;;;;;;;;;4967691;28;20037;-58
2021/05/09 03:05:06;;;;;;;28.00;9.45;;;;;;;;;;4966991;28;20062;-57
2021/05/09 03:07:32;;;;;;;33.45;9.75;;;;;;;;;;4972208;28;20416;-57
2021/05/09 03:09:59;;;;;;;34.70;10.07;;;;;;;;;;4967580;28;20402;-58
2021/05/09 03:12:24;;;;;;;34.97;9.75;;;;;;;;;;4968668;28;20038;-58
2021/05/09 03:14:54;;;;;;;26.35;9.15;;;;;;;;;;4966202;28;20034;-58
2021/05/09 03:17:20;;;;;;;32.78;10.55;;;;;;;;;;4968494;28;20129;-58
2021/05/09 03:19:46;;;;;;;25.95;9.10;;;;;;;;;;4969679;28;20060;-58
2021/05/09 03:22:13;;;;;;;35.05;9.82;;;;;;;;;;4969103;28;20058;-58
2021/05/09 03:24:39;;;;;;;32.83;9.73;;;;;;;;;;4983017;28;20038;-57
2021/05/09 03:27:04;;;;;;;30.80;9.13;;;;;;;;;;4982086;28;20030;-57
2021/05/09 03:29:30;;;;;;;28.92;8.35;;;;;;;;;;4967439;28;21798;-58
2021/05/09 03:32:00;;;;;;;30.25;8.90;;;;;;;;;;4967532;28;20054;-58
2021/05/09 03:34:26;;;;;;;25.48;8.90;;;;;;;;;;4981985;28;20145;-59
2021/05/09 03:36:52;;;;;;;30.60;9.65;;;;;;;;;;4970010;28;21140;-58
2021/05/09 03:39:20;;;;;;;26.88;9.38;;;;;;;;;;4966580;28;20030;-58
2021/05/09 03:41:46;;;;;;;26.70;9.07;;;;;;;;;;4967406;28;20038;-58
2021/05/09 03:44:12;;;;;;;29.05;9.35;;;;;;;;;;4982582;28;20034;-57
2021/05/09 03:46:42;;;;;;;25.05;8.60;;;;;;;;;;4964766;28;20038;-59
2021/05/09 03:49:08;;;;;;;27.77;8.80;;;;;;;;;;4968716;28;20108;-57
2021/05/09 03:51:36;;;;;;;19.15;7.40;;;;;;;;;;4969006;28;20034;-64
2021/05/09 03:54:01;;;;;;;19.25;7.47;;;;;;;;;;4982491;28;20070;-58
2021/05/09 03:56:27;;;;;;;27.10;9.15;;;;;;;;;;4968408;28;20145;-57
2021/05/09 03:58:52;;;;;;;28.75;8.65;;;;;;;;;;4935047;28;20037;-57
2021/05/09 04:01:17;;;;;;;18.45;7.20;;;;;;;;;;4950392;28;20981;-57
2021/05/09 04:03:43;;;;;;;28.80;7.82;;;;;;;;;;4969012;28;20027;-57
2021/05/09 04:06:11;;;;;;;20.67;7.38;;;;;;;;;;4968761;28;20040;-57
2021/05/09 04:08:37;;;;;;;27.20;7.72;;;;;;;;;;4965683;28;20043;-57
2021/05/09 04:11:03;;;;;;;29.10;7.38;;;;;;;;;;4968186;28;20038;-57
2021/05/09 04:13:30;;;;;;;20.35;7.55;;;;;;;;;;4967991;28;20031;-56
2021/05/09 04:15:56;;;;;;;18.08;6.32;;;;;;;;;;4952196;28;20038;-58
2021/05/09 04:18:22;;;;;;;19.02;8.20;;;;;;;;;;4964215;28;20154;-58
2021/05/09 04:20:48;;;;;;;18.80;6.38;;;;;;;;;;4967303;28;20050;-59
2021/05/09 04:23:17;;;;;;;16.13;6.43;;;;;;;;;;4968717;28;20034;-57
2021/05/09 04:25:51;;;;;;;17.40;5.90;;;;;;;;;;4964907;28;20259;-57
2021/05/09 04:28:19;;;;;;;15.38;6.13;;;;;;;;;;4968249;28;20049;-59
2021/05/09 04:30:47;;;;;;;16.48;5.38;;;;;;;;;;4983998;28;20154;-58
2021/05/09 04:33:15;;;;;;;12.75;5.57;;;;;;;;;;4972975;28;20026;-58
2021/05/09 04:35:44;;;;;;;15.32;5.13;;;;;;;;;;4968213;28;20036;-58
2021/05/09 04:38:11;;;;;;;10.70;5.13;;;;;;;;;;4971384;28;20121;-57
2021/05/09 04:40:37;;;;;;;10.05;4.40;;;;;;;;;;4971121;28;20443;-58
2021/05/09 04:43:11;;;;;;;9.32;3.95;;;;;;;;;;4969848;28;20030;-57
2021/05/09 04:45:37;;;;;;;8.18;3.88;;;;;;;;;;4969030;28;20026;-59
2021/05/09 04:48:03;;;;;;;8.38;4.30;;;;;;;;;;4971816;28;20104;-58
2021/05/09 04:50:31;;;;;;;8.23;3.55;;;;;;;;;;4986038;28;21968;-58
2021/05/09 04:52:59;;;;;;;7.80;4.25;;;;;;;;;;4969482;28;20040;-57
2021/05/09 04:55:27;;;;;;;9.45;3.97;;;;;;;;;;4969001;28;20042;-57
2021/05/09 04:57:52;;;;;;;6.25;3.70;;;;;;;;;;4971174;28;20108;-58
2021/05/09 05:00:18;;;;;;;9.57;3.72;;;;;;;;;;4967414;28;20034;-57
2021/05/09 05:02:44;;;;;;;8.20;3.33;;;;;;;;;;4970715;28;20684;-58
2021/05/09 05:05:13;;;;;;;9.43;4.43;;;;;;;;;;4969400;28;20057;-58
2021/05/09 05:07:39;;;;;;;10.10;3.70;;;;;;;;;;4968229;28;20034;-58
2021/05/09 05:10:05;;;;;;;10.45;4.18;;;;;;;;;;4952494;28;20053;-58
2021/05/09 05:12:31;;;;;;;8.23;4.30;;;;;;;;;;4971049;28;20042;-59
2021/05/09 05:14:56;;;;;;;8.10;3.78;;;;;;;;;;4951424;28;20461;-59
2021/05/09 05:17:22;;;;;;;7.20;3.78;;;;;;;;;;4970778;28;20036;-59
2021/05/09 05:19:48;;;;;;;13.48;4.03;;;;;;;;;;4981848;28;20035;-58
2021/05/09 05:22:16;;;;;;;6.78;3.92;;;;;;;;;;4968643;28;20045;-58
2021/05/09 05:24:41;;;;;;;7.88;3.88;;;;;;;;;;4970897;28;20062;-58
2021/05/09 05:27:10;;;;;;;8.27;3.42;;;;;;;;;;4970246;28;20085;-57
2021/05/09 05:29:35;;;;;;;7.63;2.72;;;;;;;;;;4985436;28;20031;-60
2021/05/09 05:32:01;;;;;;;11.82;3.28;;;;;;;;;;4969456;28;20112;-59
2021/05/09 05:34:29;;;;;;;4.85;3.33;;;;;;;;;;4984985;28;20345;-59
2021/05/09 05:36:55;;;;;;;5.90;3.10;;;;;;;;;;4969869;28;20038;-60
2021/05/09 05:39:20;;;;;;;8.23;3.20;;;;;;;;;;4967511;28;20030;-59
2021/05/09 05:41:46;;;;;;;6.55;2.83;;;;;;;;;;4965846;28;20838;-59
2021/05/09 05:44:11;;;;;;;5.32;2.85;;;;;;;;;;4967929;28;20034;-59
2021/05/09 05:46:39;;;;;;;4.00;2.60;;;;;;;;;;4958284;28;20038;-59
2021/05/09 05:49:07;;;;;;;9.02;3.47;;;;;;;;;;4968156;28;20694;-58
2021/05/09 05:51:32;;;;;;;6.03;2.70;;;;;;;;;;4970048;28;20092;-59
2021/05/09 05:53:58;;;;;;;4.13;2.47;;;;;;;;;;4951850;28;20034;-58
2021/05/09 05:56:27;;;;;;;5.82;2.90;;;;;;;;;;4965452;28;20033;-59
2021/05/09 05:58:55;;;;;;;5.13;2.55;;;;;;;;;;4968580;28;20041;-59
2021/05/09 06:01:23;;;;;;;7.13;2.90;;;;;;;;;;4967572;28;20038;-60
2021/05/09 06:03:54;;;;;;;4.00;2.47;;;;;;;;;;4969914;28;20620;-59
2021/05/09 06:06:20;;;;;;;4.40;2.45;;;;;;;;;;4968288;28;20034;-59
2021/05/09 06:08:52;;;;;;;6.30;2.08;;;;;;;;;;4969241;28;20360;-60
2021/05/09 06:11:18;;;;;;;8.45;1.98;;;;;;;;;;4968733;28;20156;-60
2021/05/09 06:13:43;;;;;;;7.45;2.75;;;;;;;;;;4970526;28;20053;-60
2021/05/09 06:16:09;;;;;;;4.78;2.33;;;;;;;;;;4970975;28;20034;-59
2021/05/09 06:18:37;;;;;;;5.95;2.13;;;;;;;;;;4985690;28;20030;-60
2021/05/09 06:21:03;;;;;;;2.83;2.08;;;;;;;;;;4969124;28;20580;-59
2021/05/09 06:23:29;;;;;;;4.78;2.15;;;;;;;;;;4969001;28;20065;-60
2021/05/09 06:25:55;;;;;;;5.60;2.70;;;;;;;;;;4969321;28;20046;-59
2021/05/09 06:28:20;;;;;;;3.08;1.70;;;;;;;;;;4968166;28;20064;-59
2021/05/09 06:30:47;;;;;;;2.17;1.98;;;;;;;;;;4969231;28;20050;-59
2021/05/09 06:33:13;;;;;;;3.08;1.95;;;;;;;;;;4970530;28;20056;-59
2021/05/09 06:35:39;;;;;;;5.00;1.90;;;;;;;;;;4969562;28;20034;-59
2021/05/09 06:38:07;;;;;;;5.97;2.38;;;;;;;;;;4967994;28;20030;-58
2021/05/09 06:40:38;;;;;;;3.97;2.28;;;;;;;;;;4968675;28;20061;-60
2021/05/09 06:43:06;;;;;;;5.22;1.67;;;;;;;;;;4968849;28;20104;-59
2021/05/09 06:45:32;;;;;;;6.22;2.13;;;;;;;;;;4984081;28;20027;-59
2021/05/09 06:47:59;;;;;;;4.13;2.28;;;;;;;;;;4984650;28;20031;-59
2021/05/09 06:50:26;;;;;;;5.32;2.10;;;;;;;;;;4966270;28;20022;-59
2021/05/09 06:52:52;;;;;;;4.22;1.95;;;;;;;;;;4969996;28;20469;-58
2021/05/09 06:55:19;;;;;;;5.68;2.03;;;;;;;;;;4967775;28;20045;-59
2021/05/09 06:57:45;;;;;;;7.22;2.10;;;;;;;;;;4970238;28;20128;-60
2021/05/09 07:00:11;;;;;;;3.90;1.98;;;;;;;;;;4966192;28;20038;-60
2021/05/09 07:02:36;;;;;;;4.97;2.00;;;;;;;;;;4984860;28;20035;-59
2021/05/09 07:05:03;;;;;;;4.05;1.70;;;;;;;;;;4969608;28;20026;-59
2021/05/09 07:07:28;;;;;;;2.38;2.05;;;;;;;;;;4968093;28;21004;-60
2021/05/09 07:09:56;;;;;;;3.17;2.42;;;;;;;;;;4969469;28;20030;-60
2021/05/09 07:12:24;;;;;;;4.47;1.70;;;;;;;;;;4952315;28;20700;-60
2021/05/09 07:14:50;;;;;;;2.53;1.60;;;;;;;;;;4967569;28;20126;-60
2021/05/09 07:17:16;;;;;;;2.70;1.98;;;;;;;;;;4968109;28;20042;-60
2021/05/09 07:19:43;;;;;;;3.58;1.98;;;;;;;;;;4966118;28;20034;-60
2021/05/09 07:22:24;;;;;;;4.32;1.90;;;;;;;;;;4983745;28;20038;-59
2021/05/09 07:24:50;;;;;;;2.95;1.85;;;;;;;;;;4966819;28;20045;-60
2021/05/09 07:27:15;;;;;;;5.13;1.58;;;;;;;;;;4969254;28;20035;-60
2021/05/09 07:29:41;;;;;;;3.53;1.67;;;;;;;;;;4984128;28;20038;-60
2021/05/09 07:32:06;;;;;;;5.00;2.35;;;;;;;;;;4967362;28;20098;-60
2021/05/09 07:34:32;;;;;;;3.50;1.75;;;;;;;;;;4968227;28;20132;-60
2021/05/09 07:36:58;;;;;;;3.53;1.50;;;;;;;;;;4967841;28;20049;-59
2021/05/09 07:39:23;;;;;;;2.85;1.67;;;;;;;;;;4962223;28;20129;-59
2021/05/09 07:41:52;;;;;;;2.85;1.55;;;;;;;;;;4969180;28;20061;-60
2021/05/09 07:44:20;;;;;;;4.63;2.17;;;;;;;;;;4967318;28;20769;-60
2021/05/09 07:46:48;;;;;;;4.20;1.63;;;;;;;;;;4969080;28;20171;-60
2021/05/09 07:49:16;;;;;;;3.83;1.50;;;;;;;;;;4968104;28;20736;-60
2021/05/09 07:51:43;;;;;;;1.48;1.38;;;;;;;;;;4969159;28;20126;-60
2021/05/09 07:54:11;;;;;;;4.13;1.60;;;;;;;;;;4968557;28;20464;-60
2021/05/09 07:56:38;;;;;;;4.40;1.63;;;;;;;;;;4969663;28;20030;-60
2021/05/09 07:59:04;;;;;;;2.63;1.60;;;;;;;;;;4982432;28;20034;-59
2021/05/09 08:01:32;;;;;;;3.03;1.73;;;;;;;;;;4949930;28;20761;-60
2021/05/09 08:03:58;;;;;;;4.00;1.73;;;;;;;;;;4968399;28;20030;-59
2021/05/09 08:06:24;;;;;;;3.63;2.10;;;;;;;;;;4970214;28;20034;-60
2021/05/09 08:08:52;;;;;;;5.90;2.15;;;;;;;;;;4971947;28;20045;-60
2021/05/09 08:11:18;;;;;;;3.45;1.92;;;;;;;;;;4970859;28;20034;-59
2021/05/09 08:13:44;;;;;;;3.17;1.98;;;;;;;;;;4987038;28;20109;-59
2021/05/09 08:16:10;;;;;;;4.60;2.17;;;;;;;;;;4971047;28;20045;-60
2021/05/09 08:18:35;;;;;;;2.42;1.75;;;;;;;;;;4970964;28;20035;-61
2021/05/09 08:21:02;;;;;;;4.90;1.60;;;;;;;;;;4955469;28;20516;-60
2021/05/09 08:23:28;;;;;;;2.63;1.90;;;;;;;;;;4972262;28;20030;-62
2021/05/09 08:25:56;;;;;;;5.50;2.30;;;;;;;;;;4969232;28;20177;-62
2021/05/09 08:28:21;;;;;;;6.10;2.17;;;;;;;;;;4983855;28;20034;-62
2021/05/09 08:30:47;;;;;;;2.70;1.67;;;;;;;;;;4953927;28;21073;-60
2021/05/09 08:33:13;;;;;;;4.15;1.70;;;;;;;;;;4969639;28;20057;-62
2021/05/09 08:35:40;;;;;;;2.75;1.83;;;;;;;;;;4971053;28;20042;-60
2021/05/09 08:38:06;;;;;;;3.42;1.63;;;;;;;;;;4970285;28;20533;-61
2021/05/09 08:40:35;;;;;;;2.35;1.55;;;;;;;;;;4968987;28;20208;-62
2021/05/09 08:43:01;;;;;;;5.28;1.75;;;;;;;;;;4971574;28;20084;-60
2021/05/09 08:45:27;;;;;;;3.65;1.65;;;;;;;;;;4971447;28;20629;-59
2021/05/09 08:47:55;;;;;;;2.50;1.70;;;;;;;;;;4970807;28;20620;-62
2021/05/09 08:50:25;;;;;;;3.53;1.38;;;;;;;;;;4968831;28;20141;-62
2021/05/09 08:52:51;;;;;;;3.78;1.83;;;;;;;;;;4969575;28;20038;-61
2021/05/09 08:55:24;;;;;;;6.45;1.80;;;;;;;;;;4950820;28;20043;-62
2021/05/09 08:57:52;;;;;;;2.45;1.33;;;;;;;;;;4970017;28;20036;-62
2021/05/09 09:00:22;;;;;;;4.18;1.45;;;;;;;;;;4969464;28;20030;-60
2021/05/09 09:02:48;;;;;;;3.22;1.42;;;;;;;;;;4968586;28;20038;-60
2021/05/09 09:05:16;;;;;;;3.33;1.63;;;;;;;;;;4968895;28;20142;-61
2021/05/09 09:07:43;;;;;;;2.15;1.20;;;;;;;;;;4967729;28;20518;-61
2021/05/09 09:10:09;;;;;;;3.58;1.55;;;;;;;;;;4985372;28;20026;-61
2021/05/09 09:12:38;;;;;;;3.25;1.48;;;;;;;;;;4953107;28;20413;-63
2021/05/09 09:15:04;;;;;;;1.98;1.35;;;;;;;;;;4966417;28;21135;-59
2021/05/09 09:17:30;;;;;;;2.13;1.23;;;;;;;;;;4967151;28;20030;-62
2021/05/09 09:20:13;;;;;;;3.78;1.30;;;;;;;;;;4967325;28;20027;-61
2021/05/09 09:22:52;;;;;;;3.60;1.48;;;;;;;;;;4965107;28;20048;-60
2021/05/09 09:25:18;;;;;;;2.85;1.40;;;;;;;;;;4982101;28;20932;-61
2021/05/09 09:27:48;;;;;;;3.30;1.65;;;;;;;;;;4969170;28;20032;-59
2021/05/09 09:30:19;;;;;;;2.65;1.38;;;;;;;;;;4968823;28;20054;-60
2021/05/09 09:33:05;;;;;;;4.88;1.40;;;;;;;;;;4965997;28;20079;-59
2021/05/09 09:35:31;;;;;;;3.50;1.65;;;;;;;;;;4967333;28;20046;-59
2021/05/09 09:37:56;;;;;;;4.80;1.55;;;;;;;;;;4951738;28;20076;-59
2021/05/09 09:40:23;;;;;;;3.20;2.05;;;;;;;;;;4965178;28;20034;-59
2021/05/09 09:42:50;;;;;;;10.32;2.30;;;;;;;;;;4969723;28;21517;-59
2021/05/09 09:45:21;;;;;;;9.40;2.20;;;;;;;;;;4967618;28;20038;-58
2021/05/09 09:47:47;;;;;;;7.15;2.05;;;;;;;;;;4967027;28;20111;-58
2021/05/09 09:50:33;;;;;;;5.68;2.28;;;;;;;;;;4951288;28;20030;-58
2021/05/09 09:53:01;;;;;;;9.07;2.45;;;;;;;;;;4967836;28;20104;-58
2021/05/09 09:55:27;;;;;;;5.18;2.72;;;;;;;;;;4968724;28;20038;-57
2021/05/09 09:58:03;;;;;;;3.97;2.10;;;;;;;;;;4968389;28;20669;-58
2021/05/09 10:00:32;;;;;;;7.22;2.58;;;;;;;;;;4983002;28;20042;-57
2021/05/09 10:02:58;;;;;;;10.85;2.58;;;;;;;;;;4966495;28;20048;-57
2021/05/09 10:05:24;;;;;;;5.68;2.92;;;;;;;;;;4966942;28;20088;-59
2021/05/09 10:07:49;;;;;;;9.32;2.40;;;;;;;;;;4967509;28;20125;-58
2021/05/09 10:10:16;;;;;;;4.45;2.60;;;;;;;;;;4966559;28;20094;-58
2021/05/09 10:12:45;;;;;;;5.90;2.38;;;;;;;;;;4967364;28;20026;-59
2021/05/09 10:15:15;;;;;;;5.07;2.20;;;;;;;;;;4966366;28;20109;-59
2021/05/09 10:17:42;;;;;;;4.25;2.05;;;;;;;;;;4968247;28;20047;-57
2021/05/09 10:20:10;;;;;;;3.58;1.92;;;;;;;;;;4968513;28;20046;-58
2021/05/09 10:22:35;;;;;;;2.38;1.77;;;;;;;;;;4965890;28;20498;-58
2021/05/09 10:25:04;;;;;;;4.03;2.22;;;;;;;;;;4963810;28;22547;-58
2021/05/09 10:27:37;;;;;;;4.10;2.08;;;;;;;;;;4983171;28;20026;-58
2021/05/09 10:30:04;;;;;;;3.10;1.70;;;;;;;;;;4963858;28;20057;-59
2021/05/09 10:32:37;;;;;;;3.10;1.52;;;;;;;;;;4976466;28;20196;-59
2021/05/09 10:35:10;;;;;;;1.50;1.30;;;;;;;;;;4967728;28;20157;-59
2021/05/09 10:37:39;;;;;;;2.05;1.52;;;;;;;;;;4961877;28;20092;-59
2021/05/09 10:40:19;;;;;;;4.22;1.55;;;;;;;;;;4954856;28;20069;-59
2021/05/09 10:42:46;;;;;;;3.60;1.38;;;;;;;;;;4959360;28;20046;-59
2021/05/09 10:45:26;;;;;;;2.38;1.45;;;;;;;;;;4958321;28;20775;-59
2021/05/09 10:48:11;;;;;;;2.75;1.40;;;;;;;;;;4962426;28;20055;-60
2021/05/09 10:50:37;;;;;;;;;;;;;;;;;;4968583;28;20034;-59
2021/05/09 10:53:02;;;;;;;1.63;1.15;;;;;;;;;;4968064;28;19928;-62
2021/05/09 10:55:44;;;;;;;1.95;1.08;;;;;;;;;;4967843;28;20030;-59
2021/05/09 10:58:15;;;;;;;1.65;1.17;;;;;;;;;;4962203;28;20034;-59
2021/05/09 11:01:10;;;;;;;4.93;1.60;;;;;;;;;;4967203;28;20041;-60
2021/05/09 11:03:41;;;;;;;2.50;0.95;;;;;;;;;;4968116;28;20061;-59
2021/05/09 11:06:10;;;;;;;1.67;1.20;;;;;;;;;;4966526;28;20217;-59
2021/05/09 11:08:48;;;;;;;2.33;1.23;;;;;;;;;;4968288;28;20785;-63
2021/05/09 11:11:13;;;;;;;2.22;1.33;;;;;;;;;;4964211;28;20044;-61
2021/05/09 11:14:00;;;;;;;2.88;1.05;;;;;;;;;;4968222;28;20025;-60
2021/05/09 11:16:27;;;;;;;3.70;1.60;;;;;;;;;;4965175;28;20033;-60
2021/05/09 11:18:58;;;;;;;4.57;1.40;;;;;;;;;;4963822;28;21383;-61
2021/05/09 11:21:29;;;;;;;1.95;1.15;;;;;;;;;;4957201;28;20034;-60
2021/05/09 11:23:55;;;;;;;2.15;1.40;;;;;;;;;;4957116;28;20034;-60
2021/05/09 11:26:22;;;;;;;2.35;1.35;;;;;;;;;;4970122;28;20037;-60
2021/05/09 11:29:07;;;;;;;2.83;1.13;;;;;;;;;;4974927;28;20065;-61
2021/05/09 11:31:34;;;;;;;3.22;1.30;;;;;;;;;;4973033;28;20051;-59
2021/05/09 11:34:03;;;;;;;2.33;1.23;;;;;;;;;;4938682;28;20041;-61
2021/05/09 11:36:30;;;;;;;4.18;1.40;;;;;;;;;;4970618;28;20027;-60
2021/05/09 11:39:06;;;;;;;3.88;1.42;;;;;;;;;;4955924;28;20030;-59
2021/05/09 11:41:46;;;;;;;2.08;1.27;;;;;;;;;;4968833;28;20053;-61
2021/05/09 11:44:12;;;;;;;3.63;1.10;;;;;;;;;;4955443;28;20061;-60
2021/05/09 11:46:40;;;;;;;2.25;1.20;;;;;;;;;;4972231;28;20107;-61
2021/05/09 11:49:19;;;;;;;2.13;1.13;;;;;;;;;;4952539;28;20711;-61
2021/05/09 11:51:54;;;;;;;1.88;1.10;;;;;;;;;;4938911;28;20161;-61
2021/05/09 11:54:21;;;;;;;1.95;0.80;;;;;;;;;;4954025;28;20057;-62
2021/05/09 11:56:54;;;;;;;1.92;0.77;;;;;;;;;;4957999;28;20045;-61
2021/05/09 11:59:36;;;;;;;2.63;1.05;;;;;;;;;;4954985;28;20117;-59
2021/05/09 12:02:04;;;;;;;0.93;0.60;;;;;;;;;;4981896;28;20034;-60
2021/05/09 12:04:31;;;;;;;2.47;0.70;;;;;;;;;;4962563;28;20720;-61
2021/05/09 12:06:57;;;;;;;4.00;0.73;;;;;;;;;;4964298;28;20034;-60
2021/05/09 12:09:26;;;;;;;1.10;0.60;;;;;;;;;;4967286;28;20034;-60
2021/05/09 12:11:52;;;;;;;1.25;0.70;;;;;;;;;;4965192;28;20097;-61
2021/05/09 12:14:19;;;;;;;1.45;0.80;;;;;;;;;;4964742;28;20034;-61
2021/05/09 12:16:48;;;;;;;1.27;0.60;;;;;;;;;;4967522;28;20030;-61
2021/05/09 12:19:15;;;;;;;1.45;0.60;;;;;;;;;;4966516;28;20036;-61
2021/05/09 12:21:58;;;;;;;1.73;0.60;;;;;;;;;;4964959;28;20045;-61
2021/05/09 12:24:24;;;;;;;2.40;0.65;;;;;;;;;;4964148;28;20062;-62
2021/05/09 12:26:58;;;;;;;1.35;0.57;;;;;;;;;;4965513;28;21168;-61
2021/05/09 12:29:30;;;;;;;1.73;0.73;;;;;;;;;;4980255;28;20557;-61
2021/05/09 12:32:24;;;;;;;1.63;0.60;;;;;;;;;;4965333;28;21102;-59
2021/05/09 12:35:00;;;;;;;0.98;0.70;;;;;;;;;;4966054;28;20409;-59
2021/05/09 12:37:31;;;;;;;1.17;0.47;;;;;;;;;;4967564;28;20101;-59
2021/05/09 12:40:13;;;;;;;0.95;0.40;;;;;;;;;;4964156;28;20045;-62
2021/05/09 12:42:54;;;;;;;1.77;0.93;;;;;;;;;;4966417;28;20132;-61
2021/05/09 12:45:50;;;;;;;0.65;0.55;;;;;;;;;;4964350;28;20163;-61
2021/05/09 12:48:26;;;;;;;5.88;1.05;;;;;;;;;;4964076;28;20030;-61
2021/05/09 12:51:05;;;;;;;3.20;1.02;;;;;;;;;;4968560;28;22084;-60
2021/05/09 12:53:35;;;;;;;3.75;0.68;;;;;;;;;;4968578;28;20026;-62
2021/05/09 12:56:14;;;;;;;2.17;0.95;;;;;;;;;;4967877;28;20049;-60
2021/05/09 12:58:58;;;;;;;1.13;0.60;;;;;;;;;;4968195;28;20030;-62
2021/05/09 13:01:24;;;;;;;2.40;0.80;;;;;;;;;;4969011;28;20141;-62
2021/05/09 13:03:50;;;;;;;3.35;1.75;;;;;;;;;;4970208;28;20026;-61
2021/05/09 13:06:15;;;;;;;4.35;1.10;;;;;;;;;;4967986;28;20038;-60
2021/05/09 13:08:41;;;;;;;2.75;0.77;;;;;;;;;;4971475;28;20097;-62
2021/05/09 13:11:07;;;;;;;1.85;0.90;;;;;;;;;;4966094;28;20034;-61
2021/05/09 13:13:32;;;;;;;2.95;0.88;;;;;;;;;;4952251;28;20034;-62
2021/05/09 13:15:57;;;;;;;1.55;1.33;;;;;;;;;;4969250;28;20655;-60
2021/05/09 13:18:26;;;;;;;1.40;1.23;;;;;;;;;;4951430;28;20043;-62
2021/05/09 13:20:51;;;;;;;2.22;1.15;;;;;;;;;;4969251;28;20101;-61
2021/05/09 13:23:19;;;;;;;2.70;1.05;;;;;;;;;;4968654;28;20122;-59
2021/05/09 13:25:47;;;;;;;5.93;1.30;;;;;;;;;;4966789;28;20042;-60
2021/05/09 13:28:12;;;;;;;5.47;1.50;;;;;;;;;;4951629;28;20030;-61
2021/05/09 13:30:42;;;;;;;3.58;1.48;;;;;;;;;;4971439;28;20117;-59
2021/05/09 13:33:08;;;;;;;1.85;1.60;;;;;;;;;;4962464;28;20042;-61
2021/05/09 13:35:39;;;;;;;10.27;2.08;;;;;;;;;;4968089;28;20105;-61
2021/05/09 13:38:04;;;;;;;5.60;2.17;;;;;;;;;;4968574;28;20041;-58
2021/05/09 13:40:32;;;;;;;5.13;2.17;;;;;;;;;;4953133;28;20042;-59
2021/05/09 13:43:00;;;;;;;25.20;3.47;;;;;;;;;;4967985;28;20116;-60
2021/05/09 13:45:26;;;;;;;4.05;2.42;;;;;;;;;;4964212;28;20041;-58
2021/05/09 13:47:54;;;;;;;3.22;2.47;;;;;;;;;;4984188;28;20120;-58
2021/05/09 13:50:24;;;;;;;4.40;2.05;;;;;;;;;;4969455;28;20048;-58
2021/05/09 13:52:50;;;;;;;2.60;2.05;;;;;;;;;;4982434;28;20026;-59
2021/05/09 13:55:16;;;;;;;3.28;2.10;;;;;;;;;;4967674;28;20034;-59
2021/05/09 13:57:42;;;;;;;3.13;1.55;;;;;;;;;;4966152;28;20057;-58
2021/05/09 14:00:08;;;;;;;2.78;1.63;;;;;;;;;;4967003;28;20042;-60
2021/05/09 14:02:36;;;;;;;2.45;1.65;;;;;;;;;;4966487;28;20038;-59
2021/05/09 14:05:02;;;;;;;2.70;1.65;;;;;;;;;;4968215;28;20042;-59
2021/05/09 14:07:29;;;;;;;1.70;1.08;;;;;;;;;;4938464;28;20034;-60
2021/05/09 14:09:54;;;;;;;7.57;1.45;;;;;;;;;;4949600;28;20052;-60
2021/05/09 14:12:21;;;;;;;2.38;1.27;;;;;;;;;;4968035;28;20611;-62
2021/05/09 14:14:51;;;;;;;1.80;1.17;;;;;;;;;;4967618;28;20054;-61
2021/05/09 14:17:17;;;;;;;2.10;1.40;;;;;;;;;;4969662;28;20041;-60
2021/05/09 14:19:45;;;;;;;1.48;1.38;;;;;;;;;;4964779;28;20039;-60
2021/05/09 14:22:19;;;;;;;3.25;2.00;;;;;;;;;;4950515;28;20062;-61
2021/05/09 14:24:45;;;;;;;3.28;1.30;;;;;;;;;;4968433;28;20034;-59
2021/05/09 14:27:11;;;;;;;3.25;1.67;;;;;;;;;;4969839;28;20046;-61
2021/05/09 14:29:36;;;;;;;1.73;1.38;;;;;;;;;;4965827;28;20088;-60
2021/05/09 14:32:07;;;;;;;3.05;1.30;;;;;;;;;;4968916;28;20047;-60
2021/05/09 14:34:37;;;;;;;3.67;1.42;;;;;;;;;;4951604;28;20100;-61
2021/05/09 14:37:03;;;;;;;1.20;1.10;;;;;;;;;;4965954;28;20100;-61
2021/05/09 14:39:29;;;;;;;1.58;1.30;;;;;;;;;;4966941;28;20512;-61
2021/05/09 14:41:54;;;;;;;3.03;1.67;;;;;;;;;;4968627;28;20080;-62
2021/05/09 14:44:21;;;;;;;1.80;1.10;;;;;;;;;;4966829;28;20658;-61